createdAt,value
2019-04-26T00:00:40.362Z,71.14
2019-04-26T00:01:40.286Z,70.95
2019-04-26T00:02:40.214Z,71.30
2019-04-26T00:03:40.151Z,71.30
2019-04-26T00:04:40.072Z,71.30
2019-04-26T00:05:39.997Z,71.20
2019-04-26T00:06:39.926Z,71.30
2019-04-26T00:07:39.852Z,71.68
2019-04-26T00:08:39.798Z,71.77
2019-04-26T00:09:39.732Z,71.30
2019-04-26T00:10:39.659Z,71.30
2019-04-26T00:11:39.587Z,71.58
2019-04-26T00:12:39.531Z,71.48
2019-04-26T00:13:39.463Z,71.87
2019-04-26T00:14:39.387Z,71.58
2019-04-26T00:15:39.311Z,71.77
2019-04-26T00:16:39.245Z,71.77
2019-04-26T00:17:39.172Z,71.48
2019-04-26T00:18:39.530Z,71.87
2019-04-26T00:19:39.030Z,71.58
2019-04-26T00:20:38.964Z,71.68
2019-04-26T00:21:38.891Z,71.30
2019-04-26T00:22:38.826Z,71.68
2019-04-26T00:23:38.758Z,71.68
2019-04-26T00:24:38.726Z,71.48
2019-04-26T00:25:38.607Z,71.77
2019-04-26T00:26:38.535Z,71.58
2019-04-26T00:27:38.463Z,71.45
2019-04-26T00:28:38.405Z,71.83
2019-04-26T00:29:38.338Z,72.50
2019-04-26T00:30:38.254Z,72.60
2019-04-26T00:31:38.185Z,73.08
2019-04-26T00:32:38.181Z,73.36
2019-04-26T00:33:38.058Z,73.80
2019-04-26T00:34:37.983Z,74.13
2019-04-26T00:35:47.352Z,73.94
2019-04-26T00:36:37.836Z,74.22
2019-04-26T00:37:37.768Z,73.36
2019-04-26T00:38:37.693Z,73.46
2019-04-26T00:39:37.625Z,73.65
2019-04-26T00:40:37.564Z,73.55
2019-04-26T00:41:37.495Z,73.65
2019-04-26T00:42:37.422Z,73.36
2019-04-26T00:43:37.362Z,73.94
2019-04-26T00:44:37.271Z,73.75
2019-04-26T00:45:37.210Z,73.94
2019-04-26T00:46:37.147Z,74.04
2019-04-26T00:47:37.075Z,73.46
2019-04-26T00:48:36.995Z,73.65
2019-04-26T00:49:43.418Z,73.36
2019-04-26T00:50:36.859Z,73.08
2019-04-26T00:51:36.785Z,73.40
2019-04-26T00:52:36.736Z,72.83
2019-04-26T00:53:36.660Z,72.83
2019-04-26T00:54:36.580Z,72.92
2019-04-26T00:55:36.542Z,73.40
2019-04-26T00:56:36.447Z,73.21
2019-04-26T00:57:36.376Z,73.02
2019-04-26T00:58:36.302Z,72.83
2019-04-26T00:59:36.303Z,72.92
2019-04-26T01:00:36.151Z,73.30
2019-04-26T01:01:36.082Z,73.21
2019-04-26T01:02:36.025Z,72.54
2019-04-26T01:03:35.958Z,72.63
2019-04-26T01:04:35.873Z,72.34
2019-04-26T01:05:35.804Z,72.44
2019-04-26T01:06:35.737Z,71.68
2019-04-26T01:07:35.666Z,71.30
2019-04-26T01:08:35.606Z,70.87
2019-04-26T01:09:35.531Z,70.68
2019-04-26T01:10:35.468Z,70.59
2019-04-26T01:11:35.395Z,70.68
2019-04-26T01:12:35.315Z,70.78
2019-04-26T01:13:35.243Z,70.68
2019-04-26T01:14:35.170Z,70.40
2019-04-26T01:15:35.112Z,70.59
2019-04-26T01:16:35.041Z,70.59
2019-04-26T01:17:34.976Z,70.87
2019-04-26T01:18:34.890Z,70.97
2019-04-26T01:19:34.821Z,70.68
2019-04-26T01:20:34.761Z,70.68
2019-04-26T01:21:34.696Z,70.50
2019-04-26T01:22:34.629Z,70.78
2019-04-26T01:23:34.554Z,70.50
2019-04-26T01:24:34.469Z,71.07
2019-04-26T01:25:34.397Z,70.40
2019-04-26T01:26:34.327Z,70.40
2019-04-26T01:27:34.257Z,70.68
2019-04-26T01:28:34.210Z,71.07
2019-04-26T01:29:34.133Z,70.68
2019-04-26T01:30:34.058Z,70.68
2019-04-26T01:31:33.988Z,71.16
2019-04-26T01:32:33.904Z,70.40
2019-04-26T01:33:33.835Z,70.59
2019-04-26T01:34:33.776Z,70.50
2019-04-26T01:35:33.704Z,71.07
2019-04-26T01:36:33.637Z,70.68
2019-04-26T01:37:33.569Z,70.87
2019-04-26T01:38:33.493Z,70.87
2019-04-26T01:39:33.427Z,70.68
2019-04-26T01:40:33.354Z,70.78
2019-04-26T01:41:33.280Z,70.72
2019-04-26T01:42:33.212Z,70.40
2019-04-26T01:43:33.146Z,70.59
2019-04-26T01:44:33.061Z,70.40
2019-04-26T01:45:32.988Z,70.59
2019-04-26T01:46:32.924Z,70.68
2019-04-26T01:47:32.848Z,70.50
2019-04-26T01:48:32.788Z,70.50
2019-04-26T01:49:32.727Z,71.01
2019-04-26T01:50:32.637Z,70.97
2019-04-26T01:51:32.926Z,70.40
2019-04-26T01:52:32.510Z,70.59
2019-04-26T01:53:33.042Z,70.78
2019-04-26T01:54:32.377Z,70.59
2019-04-26T01:55:32.298Z,70.62
2019-04-26T01:56:32.213Z,70.59
2019-04-26T01:57:32.142Z,70.59
2019-04-26T01:58:32.084Z,70.68
2019-04-26T01:59:32.018Z,70.68
2019-04-26T02:00:31.935Z,71.16
2019-04-26T02:01:31.860Z,71.26
2019-04-26T02:02:32.050Z,71.73
2019-04-26T02:03:31.913Z,71.83
2019-04-26T02:04:31.985Z,71.73
2019-04-26T02:05:32.023Z,71.45
2019-04-26T02:06:35.078Z,71.73
2019-04-26T02:07:32.503Z,71.55
2019-04-26T02:08:32.439Z,71.45
2019-04-26T02:09:31.309Z,71.64
2019-04-26T02:10:31.242Z,71.16
2019-04-26T02:11:31.167Z,71.73
2019-04-26T02:12:31.085Z,71.64
2019-04-26T02:13:31.032Z,71.45
2019-04-26T02:14:31.122Z,71.83
2019-04-26T02:15:31.243Z,71.73
2019-04-26T02:16:31.180Z,71.64
2019-04-26T02:17:31.449Z,71.73
2019-04-26T02:18:31.468Z,71.55
2019-04-26T02:19:31.552Z,71.64
2019-04-26T02:20:30.522Z,71.64
2019-04-26T02:21:30.452Z,71.55
2019-04-26T02:22:30.398Z,71.93
2019-04-26T02:23:30.321Z,71.73
2019-04-26T02:24:30.242Z,71.45
2019-04-26T02:25:30.176Z,71.64
2019-04-26T02:26:30.426Z,72.02
2019-04-26T02:27:30.353Z,72.22
2019-04-26T02:28:30.373Z,72.56
2019-04-26T02:29:30.450Z,72.47
2019-04-26T02:30:31.183Z,72.66
2019-04-26T02:31:31.462Z,72.31
2019-04-26T02:32:30.976Z,72.69
2019-04-26T02:33:31.303Z,72.50
2019-04-26T02:34:31.313Z,72.50
2019-04-26T02:35:30.787Z,72.69
2019-04-26T02:36:50.775Z,72.66
2019-04-26T02:37:30.859Z,72.69
2019-04-26T02:38:30.952Z,72.31
2019-04-26T02:39:30.277Z,72.60
2019-04-26T02:40:30.107Z,72.50
2019-04-26T02:41:29.933Z,72.69
2019-04-26T02:42:30.967Z,72.69
2019-04-26T02:43:30.234Z,72.31
2019-04-26T02:44:30.878Z,72.31
2019-04-26T02:45:30.929Z,72.31
2019-04-26T02:46:30.737Z,72.12
2019-04-26T02:47:30.467Z,71.93
2019-04-26T02:48:30.426Z,72.02
2019-04-26T02:49:29.274Z,72.60
2019-04-26T02:50:30.334Z,72.41
2019-04-26T02:51:29.265Z,72.22
2019-04-26T02:52:29.777Z,72.22
2019-04-26T02:53:29.524Z,72.50
2019-04-26T02:54:29.817Z,72.60
2019-04-26T02:55:29.749Z,72.22
2019-04-26T02:56:29.858Z,72.31
2019-04-26T02:57:29.152Z,72.22
2019-04-26T02:58:28.289Z,72.12
2019-04-26T02:59:28.450Z,72.22
2019-04-26T03:00:28.129Z,71.93
2019-04-26T03:01:29.314Z,71.93
2019-04-26T03:02:30.120Z,72.12
2019-04-26T03:03:29.800Z,72.02
2019-04-26T03:04:28.926Z,71.73
2019-04-26T03:05:28.481Z,71.93
2019-04-26T03:06:30.051Z,72.12
2019-04-26T03:07:27.225Z,72.22
2019-04-26T03:08:27.139Z,72.22
2019-04-26T03:09:27.071Z,72.02
2019-04-26T03:10:27.010Z,72.50
2019-04-26T03:11:26.939Z,72.31
2019-04-26T03:12:26.859Z,72.22
2019-04-26T03:13:26.799Z,72.60
2019-04-26T03:14:26.719Z,72.60
2019-04-26T03:15:26.646Z,72.41
2019-04-26T03:16:26.590Z,72.31
2019-04-26T03:17:26.543Z,72.88
2019-04-26T03:18:26.449Z,72.60
2019-04-26T03:19:26.379Z,72.69
2019-04-26T03:20:26.297Z,72.50
2019-04-26T03:21:26.228Z,72.60
2019-04-26T03:22:26.160Z,72.60
2019-04-26T03:23:41.572Z,72.60
2019-04-26T03:24:26.031Z,73.17
2019-04-26T03:25:25.962Z,73.27
2019-04-26T03:26:25.878Z,72.98
2019-04-26T03:27:25.813Z,73.27
2019-04-26T03:28:25.742Z,72.98
2019-04-26T03:29:25.688Z,73.17
2019-04-26T03:30:25.629Z,73.17
2019-04-26T03:31:25.538Z,73.75
2019-04-26T03:32:25.463Z,74.04
2019-04-26T03:33:25.432Z,73.94
2019-04-26T03:34:25.326Z,73.65
2019-04-26T03:35:25.259Z,74.09
2019-04-26T03:36:25.185Z,73.99
2019-04-26T03:37:25.105Z,74.09
2019-04-26T03:38:25.033Z,74.28
2019-04-26T03:39:24.966Z,74.51
2019-04-26T03:40:24.901Z,74.22
2019-04-26T03:41:24.835Z,74.04
2019-04-26T03:42:24.841Z,74.22
2019-04-26T03:43:24.682Z,74.41
2019-04-26T03:44:24.623Z,73.94
2019-04-26T03:45:24.553Z,73.84
2019-04-26T03:46:24.481Z,74.22
2019-04-26T03:47:24.413Z,74.22
2019-04-26T03:48:24.332Z,74.04
2019-04-26T03:49:24.259Z,74.32
2019-04-26T03:50:24.191Z,73.84
2019-04-26T03:51:24.118Z,74.61
2019-04-26T03:52:24.059Z,74.32
2019-04-26T03:53:24.011Z,74.22
2019-04-26T03:54:23.916Z,74.61
2019-04-26T03:55:23.854Z,75.43
2019-04-26T03:56:23.764Z,75.71
2019-04-26T03:57:23.704Z,76.20
2019-04-26T03:58:23.641Z,76.39
2019-04-26T03:59:23.567Z,76.20
2019-04-26T04:00:23.493Z,76.96
2019-04-26T04:01:23.413Z,77.53
2019-04-26T04:02:23.346Z,77.15
2019-04-26T04:03:26.638Z,77.15
2019-04-26T04:04:23.223Z,77.63
2019-04-26T04:05:23.134Z,77.53
2019-04-26T04:06:23.063Z,77.15
2019-04-26T04:07:35.908Z,76.86
2019-04-26T04:08:22.930Z,77.06
2019-04-26T04:09:22.862Z,76.96
2019-04-26T04:10:22.804Z,76.96
2019-04-26T04:11:22.746Z,76.86
2019-04-26T04:12:22.796Z,76.96
2019-04-26T04:13:22.595Z,77.06
2019-04-26T04:14:22.659Z,77.06
2019-04-26T04:15:22.427Z,76.96
2019-04-26T04:16:22.356Z,76.96
2019-04-26T04:17:22.287Z,77.53
2019-04-26T04:18:22.218Z,77.44
2019-04-26T04:19:22.161Z,77.63
2019-04-26T04:20:22.110Z,77.92
2019-04-26T04:21:22.021Z,78.11
2019-04-26T04:22:21.950Z,77.82
2019-04-26T04:23:21.868Z,77.82
2019-04-26T04:24:21.796Z,77.92
2019-04-26T04:25:21.720Z,77.53
2019-04-26T04:26:21.657Z,77.72
2019-04-26T04:27:21.591Z,77.25
2019-04-26T04:28:21.525Z,76.96
2019-04-26T04:29:21.461Z,76.96
2019-04-26T04:30:21.377Z,77.15
2019-04-26T04:31:21.317Z,76.57
2019-04-26T04:32:21.252Z,76.20
2019-04-26T04:33:21.172Z,76.20
2019-04-26T04:34:21.128Z,76.29
2019-04-26T04:35:21.024Z,76.48
2019-04-26T04:36:20.958Z,76.39
2019-04-26T04:37:20.876Z,76.29
2019-04-26T04:38:20.802Z,76.29
2019-04-26T04:39:20.752Z,76.29
2019-04-26T04:40:20.674Z,76.39
2019-04-26T04:41:20.612Z,77.34
2019-04-26T04:42:20.543Z,77.53
2019-04-26T04:43:20.587Z,77.63
2019-04-26T04:44:20.389Z,77.82
2019-04-26T04:45:20.327Z,77.53
2019-04-26T04:46:20.376Z,77.44
2019-04-26T04:47:24.151Z,77.72
2019-04-26T04:48:20.109Z,77.63
2019-04-26T04:49:20.042Z,77.34
2019-04-26T04:50:19.954Z,77.34
2019-04-26T04:51:19.895Z,77.34
2019-04-26T04:52:19.829Z,77.34
2019-04-26T04:53:19.786Z,77.63
2019-04-26T04:54:19.692Z,77.63
2019-04-26T04:55:19.605Z,77.53
2019-04-26T04:56:19.534Z,77.44
2019-04-26T04:57:19.462Z,77.34
2019-04-26T04:58:19.426Z,77.63
2019-04-26T04:59:19.332Z,77.25
2019-04-26T05:00:19.259Z,76.86
2019-04-26T05:01:19.181Z,76.96
2019-04-26T05:02:19.109Z,76.67
2019-04-26T05:03:19.046Z,76.29
2019-04-26T05:04:18.982Z,76.57
2019-04-26T05:05:18.909Z,76.86
2019-04-26T05:06:18.843Z,76.48
2019-04-26T05:07:18.759Z,76.29
2019-04-26T05:08:18.681Z,76.29
2019-04-26T05:09:18.627Z,76.29
2019-04-26T05:10:18.558Z,76.39
2019-04-26T05:11:18.477Z,76.67
2019-04-26T05:12:18.408Z,76.48
2019-04-26T05:13:18.335Z,76.67
2019-04-26T05:14:18.267Z,76.29
2019-04-26T05:15:18.207Z,75.91
2019-04-26T05:16:18.133Z,76.00
2019-04-26T05:17:18.065Z,76.00
2019-04-26T05:18:17.979Z,76.67
2019-04-26T05:19:17.924Z,76.48
2019-04-26T05:20:17.852Z,76.33
2019-04-26T05:21:17.779Z,75.66
2019-04-26T05:22:17.713Z,75.76
2019-04-26T05:23:17.632Z,75.85
2019-04-26T05:24:17.557Z,76.04
2019-04-26T05:25:17.515Z,76.04
2019-04-26T05:26:17.418Z,76.04
2019-04-26T05:27:17.354Z,76.23
2019-04-26T05:28:17.285Z,76.23
2019-04-26T05:29:17.213Z,76.04
2019-04-26T05:30:17.146Z,75.66
2019-04-26T05:31:17.065Z,75.66
2019-04-26T05:32:16.998Z,75.66
2019-04-26T05:33:16.936Z,75.27
2019-04-26T05:34:16.867Z,75.27
2019-04-26T05:35:16.784Z,75.18
2019-04-26T05:36:16.716Z,75.85
2019-04-26T05:37:16.648Z,77.15
2019-04-26T05:38:18.679Z,78.01
2019-04-26T05:39:16.513Z,79.16
2019-04-26T05:40:16.443Z,78.97
2019-04-26T05:41:16.379Z,79.25
2019-04-26T05:42:16.304Z,79.25
2019-04-26T05:43:16.223Z,79.44
2019-04-26T05:44:16.152Z,79.73
2019-04-26T05:45:16.080Z,80.17
2019-04-26T05:46:16.022Z,80.55
2019-04-26T05:47:15.953Z,81.47
2019-04-26T05:48:15.877Z,82.23
2019-04-26T05:49:15.801Z,82.32
2019-04-26T05:50:15.731Z,82.52
2019-04-26T05:51:15.668Z,82.42
2019-04-26T05:52:15.600Z,82.04
2019-04-26T05:53:15.533Z,82.08
2019-04-26T05:54:15.466Z,81.79
2019-04-26T05:55:15.376Z,81.32
2019-04-26T05:56:15.316Z,80.59
2019-04-26T05:57:15.238Z,80.59
2019-04-26T05:58:15.168Z,80.21
2019-04-26T05:59:15.109Z,80.11
2019-04-26T06:00:15.042Z,79.64
2019-04-26T06:01:14.969Z,79.54
2019-04-26T06:02:14.903Z,79.73
2019-04-26T06:03:14.814Z,79.06
2019-04-26T06:04:14.748Z,79.54
2019-04-26T06:05:14.684Z,78.97
2019-04-26T06:06:14.622Z,79.29
2019-04-26T06:07:14.538Z,78.78
2019-04-26T06:08:14.476Z,79.06
2019-04-26T06:09:14.399Z,78.72
2019-04-26T06:10:14.324Z,79.00
2019-04-26T06:11:14.307Z,78.63
2019-04-26T06:12:14.199Z,78.81
2019-04-26T06:13:14.115Z,78.63
2019-04-26T06:14:14.049Z,78.05
2019-04-26T06:15:13.983Z,78.63
2019-04-26T06:16:13.919Z,77.86
2019-04-26T06:17:13.849Z,77.61
2019-04-26T06:18:13.786Z,77.38
2019-04-26T06:19:13.732Z,77.28
2019-04-26T06:20:22.850Z,77.70
2019-04-26T06:21:13.571Z,77.42
2019-04-26T06:22:13.511Z,77.42
2019-04-26T06:23:13.421Z,77.61
2019-04-26T06:24:13.349Z,76.84
2019-04-26T06:25:13.281Z,76.84
2019-04-26T06:26:13.208Z,76.56
2019-04-26T06:27:14.302Z,76.75
2019-04-26T06:28:13.083Z,76.84
2019-04-26T06:29:13.022Z,76.65
2019-04-26T06:30:12.945Z,76.27
2019-04-26T06:31:12.869Z,76.79
2019-04-26T06:32:12.798Z,75.93
2019-04-26T06:33:12.722Z,75.93
2019-04-26T06:34:12.658Z,75.54
2019-04-26T06:35:12.595Z,76.12
2019-04-26T06:36:12.645Z,75.64
2019-04-26T06:37:12.453Z,75.54
2019-04-26T06:38:12.382Z,75.64
2019-04-26T06:39:12.324Z,75.54
2019-04-26T06:40:12.265Z,75.64
2019-04-26T06:41:12.191Z,75.64
2019-04-26T06:42:12.122Z,75.07
2019-04-26T06:43:12.042Z,75.01
2019-04-26T06:44:11.970Z,74.91
2019-04-26T06:45:11.903Z,75.01
2019-04-26T06:46:11.834Z,74.87
2019-04-26T06:47:11.775Z,75.54
2019-04-26T06:48:11.705Z,75.45
2019-04-26T06:49:11.639Z,75.26
2019-04-26T06:50:11.574Z,75.58
2019-04-26T06:51:23.512Z,74.72
2019-04-26T06:52:11.423Z,74.62
2019-04-26T06:53:11.365Z,74.97
2019-04-26T06:54:11.323Z,74.68
2019-04-26T06:55:11.218Z,74.62
2019-04-26T06:56:11.158Z,75.10
2019-04-26T06:57:14.885Z,74.62
2019-04-26T06:58:11.012Z,74.62
2019-04-26T06:59:10.955Z,74.43
2019-04-26T07:00:10.886Z,73.47
2019-04-26T07:01:10.822Z,73.57
2019-04-26T07:02:10.747Z,74.24
2019-04-26T07:03:10.670Z,73.95
2019-04-26T07:04:10.604Z,73.80
2019-04-26T07:05:10.574Z,73.80
2019-04-26T07:06:10.464Z,73.13
2019-04-26T07:07:10.412Z,73.13
2019-04-26T07:08:10.346Z,73.32
2019-04-26T07:09:11.517Z,72.64
2019-04-26T07:10:10.198Z,72.17
2019-04-26T07:11:10.180Z,72.45
2019-04-26T07:12:10.082Z,72.49
2019-04-26T07:13:10.003Z,72.27
2019-04-26T07:14:09.950Z,72.30
2019-04-26T07:15:09.856Z,72.11
2019-04-26T07:16:21.875Z,72.30
2019-04-26T07:17:09.745Z,72.11
2019-04-26T07:18:10.669Z,72.45
2019-04-26T07:19:09.590Z,72.36
2019-04-26T07:20:09.517Z,72.07
2019-04-26T07:21:09.454Z,72.39
2019-04-26T07:22:09.388Z,71.92
2019-04-26T07:23:09.343Z,71.44
2019-04-26T07:24:09.262Z,71.53
2019-04-26T07:25:09.178Z,71.53
2019-04-26T07:26:09.111Z,70.99
2019-04-26T07:27:09.060Z,71.19
2019-04-26T07:28:11.056Z,70.61
2019-04-26T07:29:09.345Z,69.93
2019-04-26T07:30:09.880Z,70.90
2019-04-26T07:31:08.780Z,70.61
2019-04-26T07:32:09.515Z,70.32
2019-04-26T07:33:08.642Z,69.74
2019-04-26T07:34:09.472Z,70.23
2019-04-26T07:35:08.738Z,70.90
2019-04-26T07:36:09.719Z,70.70
2019-04-26T07:37:08.885Z,70.70
2019-04-26T07:38:08.999Z,70.70
2019-04-26T07:39:15.697Z,70.42
2019-04-26T07:40:09.177Z,70.42
2019-04-26T07:41:09.260Z,70.42
2019-04-26T07:42:08.054Z,70.13
2019-04-26T07:43:08.203Z,70.23
2019-04-26T07:44:07.908Z,69.78
2019-04-26T07:45:07.842Z,69.68
2019-04-26T07:46:08.052Z,69.20
2019-04-26T07:47:08.540Z,69.20
2019-04-26T07:48:07.650Z,69.56
2019-04-26T07:49:08.066Z,70.23
2019-04-26T07:50:07.522Z,70.03
2019-04-26T07:51:07.449Z,70.13
2019-04-26T07:52:08.462Z,69.26
2019-04-26T07:53:07.430Z,70.03
2019-04-26T07:54:07.250Z,69.74
2019-04-26T07:55:07.168Z,70.32
2019-04-26T07:56:07.186Z,70.26
2019-04-26T07:57:07.052Z,70.36
2019-04-26T07:58:06.999Z,70.03
2019-04-26T07:59:07.266Z,69.93
2019-04-26T08:00:06.834Z,70.13
2019-04-26T08:01:07.500Z,70.07
2019-04-26T08:02:06.711Z,69.78
2019-04-26T08:03:07.002Z,70.13
2019-04-26T08:04:07.332Z,70.42
2019-04-26T08:05:07.476Z,70.36
2019-04-26T08:06:07.396Z,70.55
2019-04-26T08:07:06.404Z,70.07
2019-04-26T08:08:06.922Z,70.26
2019-04-26T08:09:06.282Z,69.78
2019-04-26T08:10:06.183Z,69.59
2019-04-26T08:11:06.264Z,69.87
2019-04-26T08:12:06.186Z,69.78
2019-04-26T08:13:06.167Z,69.30
2019-04-26T08:14:06.259Z,69.14
2019-04-26T08:15:06.100Z,69.59
2019-04-26T08:16:06.770Z,70.74
2019-04-26T08:17:06.560Z,71.28
2019-04-26T08:18:06.665Z,72.33
2019-04-26T08:19:06.924Z,72.72
2019-04-26T08:20:09.222Z,72.72
2019-04-26T08:21:10.045Z,72.88
2019-04-26T08:22:17.982Z,73.74
2019-04-26T08:23:09.010Z,74.22
2019-04-26T08:24:06.168Z,73.87
2019-04-26T08:25:06.674Z,73.87
2019-04-26T08:26:06.544Z,73.39
2019-04-26T08:27:13.622Z,73.58
2019-04-26T08:28:05.614Z,73.58
2019-04-26T08:29:06.503Z,74.02
2019-04-26T08:30:10.281Z,74.26
2019-04-26T08:31:07.300Z,73.97
2019-04-26T08:32:04.726Z,73.30
2019-04-26T08:33:07.807Z,73.87
2019-04-26T08:34:04.587Z,73.10
2019-04-26T08:35:08.250Z,73.30
2019-04-26T08:36:04.438Z,73.20
2019-04-26T08:37:04.369Z,72.91
2019-04-26T08:38:08.275Z,72.33
2019-04-26T08:39:04.250Z,71.57
2019-04-26T08:40:04.181Z,71.28
2019-04-26T08:41:04.971Z,70.70
2019-04-26T08:42:04.053Z,70.61
2019-04-26T08:43:03.978Z,70.32
2019-04-26T08:44:05.696Z,70.13
2019-04-26T08:45:04.725Z,69.74
2019-04-26T08:46:03.783Z,70.03
2019-04-26T08:47:06.104Z,70.03
2019-04-26T08:48:03.643Z,69.46
2019-04-26T08:49:06.477Z,69.84
2019-04-26T08:50:03.506Z,69.65
2019-04-26T08:51:03.445Z,68.88
2019-04-26T08:52:13.956Z,68.50
2019-04-26T08:53:03.317Z,68.79
2019-04-26T08:54:03.249Z,68.98
2019-04-26T08:55:03.175Z,68.98
2019-04-26T08:56:03.118Z,69.20
2019-04-26T08:57:03.034Z,69.01
2019-04-26T08:58:02.970Z,68.91
2019-04-26T08:59:02.907Z,68.34
2019-04-26T09:00:02.861Z,68.53
2019-04-26T09:01:02.772Z,68.34
2019-04-26T09:02:02.700Z,68.91
2019-04-26T09:03:11.347Z,69.01
2019-04-26T09:04:02.584Z,68.91
2019-04-26T09:05:02.523Z,68.44
2019-04-26T09:06:02.454Z,68.53
2019-04-26T09:07:02.366Z,69.59
2019-04-26T09:08:03.963Z,69.87
2019-04-26T09:09:02.242Z,69.49
2019-04-26T09:10:10.503Z,69.59
2019-04-26T09:11:02.112Z,69.34
2019-04-26T09:12:03.953Z,69.01
2019-04-26T09:13:02.043Z,69.68
2019-04-26T09:14:01.918Z,69.87
2019-04-26T09:15:01.834Z,70.26
2019-04-26T09:16:01.894Z,70.26
2019-04-26T09:17:01.719Z,69.78
2019-04-26T09:18:02.194Z,70.39
2019-04-26T09:19:01.572Z,69.34
2019-04-26T09:20:07.017Z,69.81
2019-04-26T09:21:01.439Z,68.85
2019-04-26T09:22:12.416Z,68.37
2019-04-26T09:23:03.927Z,68.57
2019-04-26T09:24:01.249Z,67.90
2019-04-26T09:25:01.173Z,67.70
2019-04-26T09:26:01.118Z,67.61
2019-04-26T09:27:01.044Z,67.70
2019-04-26T09:28:00.982Z,67.99
2019-04-26T09:29:00.913Z,67.90
2019-04-26T09:30:04.954Z,67.90
2019-04-26T09:31:00.772Z,67.99
2019-04-26T09:32:00.700Z,68.08
2019-04-26T09:33:02.053Z,68.08
2019-04-26T09:34:00.578Z,67.57
2019-04-26T09:35:00.504Z,67.76
2019-04-26T09:36:00.456Z,67.96
2019-04-26T09:37:00.397Z,68.28
2019-04-26T09:38:00.306Z,67.61
2019-04-26T09:39:03.872Z,67.22
2019-04-26T09:40:10.022Z,67.03
2019-04-26T09:41:00.622Z,66.84
2019-04-26T09:42:01.160Z,67.03
2019-04-26T09:43:02.498Z,66.46
2019-04-26T09:44:00.341Z,66.74
2019-04-26T09:44:59.847Z,66.55
2019-04-26T09:46:01.558Z,66.64
2019-04-26T09:46:59.728Z,66.55
2019-04-26T09:47:59.651Z,67.03
2019-04-26T09:49:02.939Z,66.64
2019-04-26T09:49:59.505Z,66.07
2019-04-26T09:50:59.457Z,65.46
2019-04-26T09:51:59.388Z,65.56
2019-04-26T09:52:59.334Z,65.59
2019-04-26T09:53:59.254Z,65.69
2019-04-26T09:54:59.173Z,65.69
2019-04-26T09:55:59.108Z,64.92
2019-04-26T09:56:59.041Z,63.79
2019-04-26T09:57:58.972Z,63.19
2019-04-26T09:59:01.567Z,62.52
2019-04-26T09:59:58.871Z,62.58
2019-04-26T10:00:58.797Z,62.39
2019-04-26T10:01:59.374Z,62.61
2019-04-26T10:02:58.643Z,61.84
2019-04-26T10:03:58.572Z,61.84
2019-04-26T10:04:58.519Z,61.55
2019-04-26T10:05:58.463Z,61.46
2019-04-26T10:06:59.432Z,60.82
2019-04-26T10:07:58.307Z,60.53
2019-04-26T10:08:58.239Z,60.50
2019-04-26T10:10:00.917Z,60.91
2019-04-26T10:10:58.118Z,60.91
2019-04-26T10:11:58.056Z,61.20
2019-04-26T10:12:57.993Z,61.30
2019-04-26T10:13:57.929Z,61.58
2019-04-26T10:14:57.845Z,61.55
2019-04-26T10:15:58.256Z,61.46
2019-04-26T10:16:57.710Z,61.65
2019-04-26T10:17:57.663Z,61.27
2019-04-26T10:18:58.240Z,61.75
2019-04-26T10:19:57.525Z,61.94
2019-04-26T10:20:57.445Z,61.94
2019-04-26T10:21:57.375Z,62.04
2019-04-26T10:22:57.320Z,62.13
2019-04-26T10:23:57.277Z,61.55
2019-04-26T10:24:57.195Z,61.46
2019-04-26T10:25:57.129Z,61.75
2019-04-26T10:26:59.249Z,61.46
2019-04-26T10:27:56.975Z,62.52
2019-04-26T10:28:56.924Z,62.13
2019-04-26T10:30:07.417Z,61.75
2019-04-26T10:30:56.779Z,61.65
2019-04-26T10:31:56.711Z,61.87
2019-04-26T10:32:58.258Z,61.36
2019-04-26T10:33:56.579Z,61.01
2019-04-26T10:34:56.517Z,61.30
2019-04-26T10:35:57.740Z,61.58
2019-04-26T10:36:57.090Z,61.49
2019-04-26T10:37:56.313Z,61.68
2019-04-26T10:38:58.416Z,61.97
2019-04-26T10:39:56.190Z,61.40
2019-04-26T10:40:56.125Z,60.82
2019-04-26T10:41:56.059Z,60.34
2019-04-26T10:42:55.977Z,60.11
2019-04-26T10:43:55.911Z,59.92
2019-04-26T10:44:55.845Z,60.14
2019-04-26T10:45:55.842Z,60.53
2019-04-26T10:46:55.986Z,60.14
2019-04-26T10:47:55.655Z,60.37
2019-04-26T10:49:07.874Z,59.86
2019-04-26T10:49:58.266Z,59.99
2019-04-26T10:50:55.443Z,60.27
2019-04-26T10:51:55.381Z,60.27
2019-04-26T10:52:55.715Z,60.08
2019-04-26T10:53:55.258Z,59.79
2019-04-26T10:54:55.185Z,59.69
2019-04-26T10:55:55.113Z,59.50
2019-04-26T10:56:55.238Z,59.50
2019-04-26T10:57:54.982Z,59.12
2019-04-26T10:58:54.926Z,58.92
2019-04-26T10:59:54.861Z,59.31
2019-04-26T11:00:54.794Z,59.50
2019-04-26T11:01:54.729Z,59.69
2019-04-26T11:02:54.647Z,60.27
2019-04-26T11:03:54.583Z,60.27
2019-04-26T11:04:54.516Z,59.95
2019-04-26T11:05:55.360Z,59.99
2019-04-26T11:06:54.397Z,60.46
2019-04-26T11:07:54.331Z,60.37
2019-04-26T11:08:54.251Z,61.33
2019-04-26T11:09:54.188Z,61.52
2019-04-26T11:10:54.138Z,61.30
2019-04-26T11:11:54.066Z,61.43
2019-04-26T11:12:53.996Z,61.33
2019-04-26T11:13:53.933Z,61.40
2019-04-26T11:14:56.991Z,60.66
2019-04-26T11:15:53.783Z,60.66
2019-04-26T11:16:53.721Z,60.75
2019-04-26T11:17:53.655Z,61.43
2019-04-26T11:18:53.599Z,61.14
2019-04-26T11:19:53.530Z,61.14
2019-04-26T11:20:53.476Z,61.58
2019-04-26T11:21:54.795Z,61.68
2019-04-26T11:22:53.354Z,62.35
2019-04-26T11:23:53.252Z,62.26
2019-04-26T11:24:53.798Z,61.78
2019-04-26T11:25:53.177Z,61.30
2019-04-26T11:26:53.055Z,61.11
2019-04-26T11:27:52.983Z,61.40
2019-04-26T11:28:55.612Z,61.58
2019-04-26T11:29:53.872Z,61.58
2019-04-26T11:30:57.374Z,61.87
2019-04-26T11:31:54.118Z,61.61
2019-04-26T11:32:52.649Z,61.04
2019-04-26T11:34:04.466Z,61.14
2019-04-26T11:34:54.415Z,61.43
2019-04-26T11:35:52.458Z,61.52
2019-04-26T11:36:52.405Z,61.23
2019-04-26T11:37:55.240Z,61.04
2019-04-26T11:38:52.259Z,61.43
2019-04-26T11:39:52.191Z,60.85
2019-04-26T11:41:05.019Z,60.75
2019-04-26T11:41:52.059Z,60.37
2019-04-26T11:42:51.995Z,60.46
2019-04-26T11:43:52.895Z,59.99
2019-04-26T11:44:51.852Z,59.99
2019-04-26T11:46:03.543Z,59.60
2019-04-26T11:46:51.730Z,60.17
2019-04-26T11:47:56.313Z,60.27
2019-04-26T11:48:58.766Z,60.85
2019-04-26T11:49:51.540Z,61.43
2019-04-26T11:50:52.200Z,60.66
2019-04-26T11:51:51.383Z,60.56
2019-04-26T11:52:51.319Z,60.17
2019-04-26T11:53:51.249Z,60.37
2019-04-26T11:54:54.850Z,59.69
2019-04-26T11:55:51.133Z,60.27
2019-04-26T11:56:51.061Z,59.92
2019-04-26T11:57:50.982Z,59.89
2019-04-26T11:58:52.614Z,60.30
2019-04-26T11:59:50.863Z,60.21
2019-04-26T12:00:50.794Z,60.21
2019-04-26T12:01:50.730Z,60.39
2019-04-26T12:02:52.181Z,60.21
2019-04-26T12:03:51.693Z,59.82
2019-04-26T12:04:53.730Z,60.30
2019-04-26T12:05:50.461Z,60.30
2019-04-26T12:06:50.383Z,60.11
2019-04-26T12:07:50.317Z,59.92
2019-04-26T12:08:50.255Z,59.63
2019-04-26T12:09:50.183Z,59.24
2019-04-26T12:10:50.128Z,59.44
2019-04-26T12:12:03.714Z,59.34
2019-04-26T12:12:51.771Z,59.63
2019-04-26T12:13:49.915Z,59.53
2019-04-26T12:14:49.865Z,60.11
2019-04-26T12:15:49.798Z,59.92
2019-04-26T12:16:51.482Z,60.39
2019-04-26T12:17:58.423Z,60.39
2019-04-26T12:18:49.589Z,60.46
2019-04-26T12:19:52.296Z,60.37
2019-04-26T12:20:49.471Z,61.26
2019-04-26T12:21:49.385Z,60.97
2019-04-26T12:22:49.333Z,60.49
2019-04-26T12:23:51.379Z,60.30
2019-04-26T12:24:49.198Z,59.92
2019-04-26T12:25:49.127Z,59.79
2019-04-26T12:26:52.024Z,60.75
2019-04-26T12:27:49.228Z,60.37
2019-04-26T12:28:48.931Z,60.66
2019-04-26T12:29:49.823Z,60.46
2019-04-26T12:30:48.781Z,60.49
2019-04-26T12:31:48.719Z,59.99
2019-04-26T12:32:50.043Z,60.56
2019-04-26T12:33:48.587Z,60.88
2019-04-26T12:34:48.532Z,60.66
2019-04-26T12:35:56.612Z,60.85
2019-04-26T12:36:48.389Z,61.23
2019-04-26T12:37:50.598Z,60.66
2019-04-26T12:38:48.276Z,61.04
2019-04-26T12:39:48.198Z,61.14
2019-04-26T12:40:48.129Z,61.33
2019-04-26T12:41:48.061Z,61.33
2019-04-26T12:42:48.387Z,61.23
2019-04-26T12:43:47.934Z,61.04
2019-04-26T12:44:47.866Z,61.14
2019-04-26T12:45:51.485Z,61.61
2019-04-26T12:46:50.518Z,62.23
2019-04-26T12:47:48.677Z,61.74
2019-04-26T12:48:49.997Z,61.16
2019-04-26T12:49:47.520Z,60.88
2019-04-26T12:50:47.466Z,60.97
2019-04-26T12:51:48.808Z,60.69